sensor_id;sensor_type;location;lat;lon;timestamp;temperature;humidity
61392;DHT22;47261;52.892;5.738;2022-10-31T00:02:21;13.90;96.90
61392;DHT22;47261;52.892;5.738;2022-10-31T00:04:46;13.80;96.90
61392;DHT22;47261;52.892;5.738;2022-10-31T00:07:12;13.90;96.80
61392;DHT22;47261;52.892;5.738;2022-10-31T00:09:37;13.80;96.80
61392;DHT22;47261;52.892;5.738;2022-10-31T00:12:03;13.80;96.80
61392;DHT22;47261;52.892;5.738;2022-10-31T00:14:29;13.70;96.70
61392;DHT22;47261;52.892;5.738;2022-10-31T00:16:54;13.70;96.60
61392;DHT22;47261;52.892;5.738;2022-10-31T00:19:20;13.60;96.60
61392;DHT22;47261;52.892;5.738;2022-10-31T00:21:45;13.60;96.70
61392;DHT22;47261;52.892;5.738;2022-10-31T00:24:11;13.60;96.70
61392;DHT22;47261;52.892;5.738;2022-10-31T00:26:37;13.60;96.60
61392;DHT22;47261;52.892;5.738;2022-10-31T00:29:03;13.50;96.50
61392;DHT22;47261;52.892;5.738;2022-10-31T00:31:29;13.40;96.40
61392;DHT22;47261;52.892;5.738;2022-10-31T00:33:55;13.30;96.60
61392;DHT22;47261;52.892;5.738;2022-10-31T00:36:20;13.20;96.30
61392;DHT22;47261;52.892;5.738;2022-10-31T00:38:47;13.10;96.30
61392;DHT22;47261;52.892;5.738;2022-10-31T00:41:14;13.10;96.30
61392;DHT22;47261;52.892;5.738;2022-10-31T00:43:41;13.00;96.30
61392;DHT22;47261;52.892;5.738;2022-10-31T00:46:07;12.90;96.30
61392;DHT22;47261;52.892;5.738;2022-10-31T00:48:33;12.90;96.40
61392;DHT22;47261;52.892;5.738;2022-10-31T00:50:59;12.80;96.40
61392;DHT22;47261;52.892;5.738;2022-10-31T00:53:24;12.80;96.50
61392;DHT22;47261;52.892;5.738;2022-10-31T00:55:50;12.80;96.50
61392;DHT22;47261;52.892;5.738;2022-10-31T00:58:15;12.70;96.50
61392;DHT22;47261;52.892;5.738;2022-10-31T01:00:41;12.70;96.60
61392;DHT22;47261;52.892;5.738;2022-10-31T01:03:08;12.70;96.60
61392;DHT22;47261;52.892;5.738;2022-10-31T01:05:33;12.70;96.70
61392;DHT22;47261;52.892;5.738;2022-10-31T01:07:59;12.60;96.70
61392;DHT22;47261;52.892;5.738;2022-10-31T01:10:25;12.60;96.70
61392;DHT22;47261;52.892;5.738;2022-10-31T01:12:50;12.60;97.00
61392;DHT22;47261;52.892;5.738;2022-10-31T01:15:20;12.60;96.80
61392;DHT22;47261;52.892;5.738;2022-10-31T01:17:47;12.60;96.80
61392;DHT22;47261;52.892;5.738;2022-10-31T01:20:14;12.60;96.70
61392;DHT22;47261;52.892;5.738;2022-10-31T01:22:40;12.60;96.70
61392;DHT22;47261;52.892;5.738;2022-10-31T01:25:06;12.60;96.70
61392;DHT22;47261;52.892;5.738;2022-10-31T01:27:33;12.60;96.80
61392;DHT22;47261;52.892;5.738;2022-10-31T01:29:58;12.60;96.80
61392;DHT22;47261;52.892;5.738;2022-10-31T01:32:24;12.60;96.80
61392;DHT22;47261;52.892;5.738;2022-10-31T01:34:50;12.60;96.90
61392;DHT22;47261;52.892;5.738;2022-10-31T01:37:16;12.60;96.80
61392;DHT22;47261;52.892;5.738;2022-10-31T01:39:41;12.60;96.80
61392;DHT22;47261;52.892;5.738;2022-10-31T01:42:17;12.60;96.80
61392;DHT22;47261;52.892;5.738;2022-10-31T01:47:15;12.60;96.80
61392;DHT22;47261;52.892;5.738;2022-10-31T01:49:53;12.60;96.80
61392;DHT22;47261;52.892;5.738;2022-10-31T01:52:41;12.60;96.90
61392;DHT22;47261;52.892;5.738;2022-10-31T01:55:18;12.60;96.90
61392;DHT22;47261;52.892;5.738;2022-10-31T01:57:48;12.60;96.80
61392;DHT22;47261;52.892;5.738;2022-10-31T02:00:15;12.50;96.80
61392;DHT22;47261;52.892;5.738;2022-10-31T02:02:42;12.50;96.80
61392;DHT22;47261;52.892;5.738;2022-10-31T02:05:16;12.50;96.80
61392;DHT22;47261;52.892;5.738;2022-10-31T02:07:53;12.60;96.80
61392;DHT22;47261;52.892;5.738;2022-10-31T02:10:21;12.50;96.80
61392;DHT22;47261;52.892;5.738;2022-10-31T02:12:50;12.50;96.80
61392;DHT22;47261;52.892;5.738;2022-10-31T02:15:16;12.50;96.80
61392;DHT22;47261;52.892;5.738;2022-10-31T02:17:41;12.50;96.80
61392;DHT22;47261;52.892;5.738;2022-10-31T02:20:20;12.50;96.80
61392;DHT22;47261;52.892;5.738;2022-10-31T02:23:20;12.50;96.80
61392;DHT22;47261;52.892;5.738;2022-10-31T02:32:00;12.30;96.70
61392;DHT22;47261;52.892;5.738;2022-10-31T02:40:10;12.30;96.80
61392;DHT22;47261;52.892;5.738;2022-10-31T02:43:14;12.30;96.80
61392;DHT22;47261;52.892;5.738;2022-10-31T02:45:51;12.20;96.70
61392;DHT22;47261;52.892;5.738;2022-10-31T02:48:23;12.20;96.60
61392;DHT22;47261;52.892;5.738;2022-10-31T02:51:01;12.20;96.70
61392;DHT22;47261;52.892;5.738;2022-10-31T02:53:33;12.10;96.70
61392;DHT22;47261;52.892;5.738;2022-10-31T02:56:04;12.10;96.70
61392;DHT22;47261;52.892;5.738;2022-10-31T02:58:33;12.10;96.70
61392;DHT22;47261;52.892;5.738;2022-10-31T03:06:53;12.00;96.70
61392;DHT22;47261;52.892;5.738;2022-10-31T03:09:27;12.00;96.80
61392;DHT22;47261;52.892;5.738;2022-10-31T03:12:08;12.00;96.80
61392;DHT22;47261;52.892;5.738;2022-10-31T03:14:43;12.00;96.80
61392;DHT22;47261;52.892;5.738;2022-10-31T03:17:26;12.00;96.80
61392;DHT22;47261;52.892;5.738;2022-10-31T03:19:55;11.90;96.80
61392;DHT22;47261;52.892;5.738;2022-10-31T03:22:27;11.90;96.70
61392;DHT22;47261;52.892;5.738;2022-10-31T03:24:55;11.90;96.80
61392;DHT22;47261;52.892;5.738;2022-10-31T03:27:24;11.80;96.70
61392;DHT22;47261;52.892;5.738;2022-10-31T03:29:53;11.80;96.80
61392;DHT22;47261;52.892;5.738;2022-10-31T03:32:23;11.80;96.80
61392;DHT22;47261;52.892;5.738;2022-10-31T03:34:55;11.70;96.80
61392;DHT22;47261;52.892;5.738;2022-10-31T03:37:24;11.70;96.80
61392;DHT22;47261;52.892;5.738;2022-10-31T03:39:51;11.70;96.90
61392;DHT22;47261;52.892;5.738;2022-10-31T03:42:22;11.70;96.90
61392;DHT22;47261;52.892;5.738;2022-10-31T03:47:35;11.70;97.00
61392;DHT22;47261;52.892;5.738;2022-10-31T03:50:02;11.70;96.90
61392;DHT22;47261;52.892;5.738;2022-10-31T03:55:24;11.70;97.00
61392;DHT22;47261;52.892;5.738;2022-10-31T03:58:00;11.70;96.90
61392;DHT22;47261;52.892;5.738;2022-10-31T04:00:28;11.70;96.90
61392;DHT22;47261;52.892;5.738;2022-10-31T04:03:04;11.60;97.00
61392;DHT22;47261;52.892;5.738;2022-10-31T04:05:31;11.70;97.10
61392;DHT22;47261;52.892;5.738;2022-10-31T04:07:58;11.70;97.00
61392;DHT22;47261;52.892;5.738;2022-10-31T04:10:26;11.70;97.00
61392;DHT22;47261;52.892;5.738;2022-10-31T04:12:57;11.60;97.00
61392;DHT22;47261;52.892;5.738;2022-10-31T04:15:25;11.60;97.00
61392;DHT22;47261;52.892;5.738;2022-10-31T04:17:54;11.60;97.00
61392;DHT22;47261;52.892;5.738;2022-10-31T04:20:31;11.60;97.00
61392;DHT22;47261;52.892;5.738;2022-10-31T04:22:57;11.60;97.00
61392;DHT22;47261;52.892;5.738;2022-10-31T04:25:22;11.60;97.10
61392;DHT22;47261;52.892;5.738;2022-10-31T04:27:48;11.60;97.10
61392;DHT22;47261;52.892;5.738;2022-10-31T04:30:13;11.60;97.00
61392;DHT22;47261;52.892;5.738;2022-10-31T04:32:39;11.60;97.00
61392;DHT22;47261;52.892;5.738;2022-10-31T04:35:05;11.60;97.00
61392;DHT22;47261;52.892;5.738;2022-10-31T04:37:31;11.50;97.00
61392;DHT22;47261;52.892;5.738;2022-10-31T04:39:56;11.50;97.00
61392;DHT22;47261;52.892;5.738;2022-10-31T04:42:22;11.50;97.00
61392;DHT22;47261;52.892;5.738;2022-10-31T04:44:47;11.50;97.00
61392;DHT22;47261;52.892;5.738;2022-10-31T04:47:13;11.50;97.00
61392;DHT22;47261;52.892;5.738;2022-10-31T04:49:39;11.50;97.10
61392;DHT22;47261;52.892;5.738;2022-10-31T04:52:04;11.50;97.20
61392;DHT22;47261;52.892;5.738;2022-10-31T04:54:30;11.50;97.30
61392;DHT22;47261;52.892;5.738;2022-10-31T04:56:56;11.50;97.30
61392;DHT22;47261;52.892;5.738;2022-10-31T04:59:21;11.50;97.30
61392;DHT22;47261;52.892;5.738;2022-10-31T05:01:47;11.50;97.30
61392;DHT22;47261;52.892;5.738;2022-10-31T05:04:13;11.50;97.30
61392;DHT22;47261;52.892;5.738;2022-10-31T05:06:38;11.50;97.30
61392;DHT22;47261;52.892;5.738;2022-10-31T05:09:04;11.50;97.30
61392;DHT22;47261;52.892;5.738;2022-10-31T05:11:29;11.50;97.30
61392;DHT22;47261;52.892;5.738;2022-10-31T05:13:55;11.50;97.30
61392;DHT22;47261;52.892;5.738;2022-10-31T05:16:21;11.50;97.30
61392;DHT22;47261;52.892;5.738;2022-10-31T05:18:46;11.50;97.30
61392;DHT22;47261;52.892;5.738;2022-10-31T05:21:12;11.50;97.30
61392;DHT22;47261;52.892;5.738;2022-10-31T05:23:38;11.50;97.30
61392;DHT22;47261;52.892;5.738;2022-10-31T05:26:03;11.50;97.30
61392;DHT22;47261;52.892;5.738;2022-10-31T05:28:29;11.50;97.30
61392;DHT22;47261;52.892;5.738;2022-10-31T05:30:54;11.50;97.30
61392;DHT22;47261;52.892;5.738;2022-10-31T05:33:20;11.50;97.30
61392;DHT22;47261;52.892;5.738;2022-10-31T05:35:46;11.50;97.30
61392;DHT22;47261;52.892;5.738;2022-10-31T05:38:11;11.50;97.30
61392;DHT22;47261;52.892;5.738;2022-10-31T05:40:37;11.50;97.30
61392;DHT22;47261;52.892;5.738;2022-10-31T05:43:02;11.50;97.30
61392;DHT22;47261;52.892;5.738;2022-10-31T05:45:28;11.50;97.30
61392;DHT22;47261;52.892;5.738;2022-10-31T05:48:03;11.50;97.30
61392;DHT22;47261;52.892;5.738;2022-10-31T05:50:30;11.40;97.20
61392;DHT22;47261;52.892;5.738;2022-10-31T05:52:58;11.40;97.20
61392;DHT22;47261;52.892;5.738;2022-10-31T05:55:24;11.40;97.20
61392;DHT22;47261;52.892;5.738;2022-10-31T05:57:52;11.40;97.20
61392;DHT22;47261;52.892;5.738;2022-10-31T06:00:18;11.40;97.20
61392;DHT22;47261;52.892;5.738;2022-10-31T06:02:44;11.30;97.10
61392;DHT22;47261;52.892;5.738;2022-10-31T06:05:10;11.20;97.10
61392;DHT22;47261;52.892;5.738;2022-10-31T06:07:36;11.20;97.10
61392;DHT22;47261;52.892;5.738;2022-10-31T06:10:04;11.20;97.10
61392;DHT22;47261;52.892;5.738;2022-10-31T06:12:30;11.20;97.20
61392;DHT22;47261;52.892;5.738;2022-10-31T06:14:56;11.20;97.20
61392;DHT22;47261;52.892;5.738;2022-10-31T06:17:22;11.10;97.30
61392;DHT22;47261;52.892;5.738;2022-10-31T06:19:47;11.20;97.30
61392;DHT22;47261;52.892;5.738;2022-10-31T06:22:13;11.10;97.20
61392;DHT22;47261;52.892;5.738;2022-10-31T06:24:39;11.10;97.20
61392;DHT22;47261;52.892;5.738;2022-10-31T06:27:05;11.10;97.30
61392;DHT22;47261;52.892;5.738;2022-10-31T06:29:31;11.10;97.30
61392;DHT22;47261;52.892;5.738;2022-10-31T06:31:56;11.10;97.40
61392;DHT22;47261;52.892;5.738;2022-10-31T06:34:22;11.10;97.40
61392;DHT22;47261;52.892;5.738;2022-10-31T06:36:47;11.10;97.40
61392;DHT22;47261;52.892;5.738;2022-10-31T06:39:13;11.10;97.30
61392;DHT22;47261;52.892;5.738;2022-10-31T06:41:39;11.00;97.30
61392;DHT22;47261;52.892;5.738;2022-10-31T06:44:07;11.00;97.30
61392;DHT22;47261;52.892;5.738;2022-10-31T06:46:33;11.00;97.30
61392;DHT22;47261;52.892;5.738;2022-10-31T06:48:58;11.00;97.30
61392;DHT22;47261;52.892;5.738;2022-10-31T06:51:24;11.00;97.40
61392;DHT22;47261;52.892;5.738;2022-10-31T06:53:50;11.00;97.30
61392;DHT22;47261;52.892;5.738;2022-10-31T06:56:15;11.00;97.40
61392;DHT22;47261;52.892;5.738;2022-10-31T06:58:41;11.00;97.40
61392;DHT22;47261;52.892;5.738;2022-10-31T07:01:06;11.00;97.50
61392;DHT22;47261;52.892;5.738;2022-10-31T07:03:32;11.00;97.50
61392;DHT22;47261;52.892;5.738;2022-10-31T07:05:58;11.00;97.50
61392;DHT22;47261;52.892;5.738;2022-10-31T07:08:24;11.00;97.50
61392;DHT22;47261;52.892;5.738;2022-10-31T07:10:55;11.00;97.50
61392;DHT22;47261;52.892;5.738;2022-10-31T07:13:22;11.00;97.60
61392;DHT22;47261;52.892;5.738;2022-10-31T07:15:58;11.10;97.60
61392;DHT22;47261;52.892;5.738;2022-10-31T07:18:24;11.10;97.60
61392;DHT22;47261;52.892;5.738;2022-10-31T07:20:51;11.10;97.60
61392;DHT22;47261;52.892;5.738;2022-10-31T07:23:17;11.20;97.60
61392;DHT22;47261;52.892;5.738;2022-10-31T07:25:42;11.20;97.60
61392;DHT22;47261;52.892;5.738;2022-10-31T07:28:09;11.20;97.60
61392;DHT22;47261;52.892;5.738;2022-10-31T07:30:35;11.20;97.60
61392;DHT22;47261;52.892;5.738;2022-10-31T07:33:00;11.20;97.70
61392;DHT22;47261;52.892;5.738;2022-10-31T07:35:28;11.30;97.70
61392;DHT22;47261;52.892;5.738;2022-10-31T07:37:54;11.30;97.70
61392;DHT22;47261;52.892;5.738;2022-10-31T07:40:21;11.40;97.80
61392;DHT22;47261;52.892;5.738;2022-10-31T07:42:51;11.40;97.80
61392;DHT22;47261;52.892;5.738;2022-10-31T07:45:20;11.50;97.90
61392;DHT22;47261;52.892;5.738;2022-10-31T07:50:17;11.70;98.10
61392;DHT22;47261;52.892;5.738;2022-10-31T07:52:43;11.80;98.20
61392;DHT22;47261;52.892;5.738;2022-10-31T07:55:09;11.90;98.20
61392;DHT22;47261;52.892;5.738;2022-10-31T07:57:35;12.00;98.10
61392;DHT22;47261;52.892;5.738;2022-10-31T08:00:05;12.00;98.10
61392;DHT22;47261;52.892;5.738;2022-10-31T08:02:31;12.00;98.00
61392;DHT22;47261;52.892;5.738;2022-10-31T08:04:57;12.10;98.00
61392;DHT22;47261;52.892;5.738;2022-10-31T08:07:22;12.10;97.90
61392;DHT22;47261;52.892;5.738;2022-10-31T08:09:48;12.10;97.90
61392;DHT22;47261;52.892;5.738;2022-10-31T08:12:14;12.10;97.90
61392;DHT22;47261;52.892;5.738;2022-10-31T08:14:39;12.20;98.20
61392;DHT22;47261;52.892;5.738;2022-10-31T08:17:05;12.30;98.00
61392;DHT22;47261;52.892;5.738;2022-10-31T08:19:30;12.30;98.00
61392;DHT22;47261;52.892;5.738;2022-10-31T08:21:56;12.40;98.00
61392;DHT22;47261;52.892;5.738;2022-10-31T08:24:22;12.50;98.10
61392;DHT22;47261;52.892;5.738;2022-10-31T08:26:47;12.60;98.00
61392;DHT22;47261;52.892;5.738;2022-10-31T08:29:13;12.70;98.10
61392;DHT22;47261;52.892;5.738;2022-10-31T08:31:40;12.80;98.10
61392;DHT22;47261;52.892;5.738;2022-10-31T08:34:05;12.90;98.20
61392;DHT22;47261;52.892;5.738;2022-10-31T08:36:31;13.00;98.20
61392;DHT22;47261;52.892;5.738;2022-10-31T08:38:57;13.20;98.20
61392;DHT22;47261;52.892;5.738;2022-10-31T08:41:22;13.30;98.20
61392;DHT22;47261;52.892;5.738;2022-10-31T08:43:48;13.50;98.10
61392;DHT22;47261;52.892;5.738;2022-10-31T08:46:14;13.60;98.00
61392;DHT22;47261;52.892;5.738;2022-10-31T08:48:39;13.70;97.80
61392;DHT22;47261;52.892;5.738;2022-10-31T08:51:05;13.80;97.70
61392;DHT22;47261;52.892;5.738;2022-10-31T08:53:31;13.90;97.70
61392;DHT22;47261;52.892;5.738;2022-10-31T08:55:57;14.00;97.60
61392;DHT22;47261;52.892;5.738;2022-10-31T08:58:24;14.10;97.60
61392;DHT22;47261;52.892;5.738;2022-10-31T09:00:53;14.20;97.50
61392;DHT22;47261;52.892;5.738;2022-10-31T09:03:24;14.30;97.40
61392;DHT22;47261;52.892;5.738;2022-10-31T09:05:53;14.50;97.40
61392;DHT22;47261;52.892;5.738;2022-10-31T09:08:19;14.50;97.40
61392;DHT22;47261;52.892;5.738;2022-10-31T09:10:45;14.60;97.30
61392;DHT22;47261;52.892;5.738;2022-10-31T09:13:21;14.70;97.10
61392;DHT22;47261;52.892;5.738;2022-10-31T09:15:48;14.80;97.00
61392;DHT22;47261;52.892;5.738;2022-10-31T09:18:17;14.90;96.90
61392;DHT22;47261;52.892;5.738;2022-10-31T09:20:44;15.00;96.80
61392;DHT22;47261;52.892;5.738;2022-10-31T09:23:12;15.00;96.60
61392;DHT22;47261;52.892;5.738;2022-10-31T09:25:38;15.10;96.60
61392;DHT22;47261;52.892;5.738;2022-10-31T09:28:06;15.20;96.20
61392;DHT22;47261;52.892;5.738;2022-10-31T09:30:33;15.20;96.00
61392;DHT22;47261;52.892;5.738;2022-10-31T09:33:01;15.20;95.90
61392;DHT22;47261;52.892;5.738;2022-10-31T09:35:27;15.20;95.80
61392;DHT22;47261;52.892;5.738;2022-10-31T09:37:57;15.20;95.80
61392;DHT22;47261;52.892;5.738;2022-10-31T09:46:10;15.40;95.90
61392;DHT22;47261;52.892;5.738;2022-10-31T09:51:34;15.60;95.90
61392;DHT22;47261;52.892;5.738;2022-10-31T09:54:14;15.80;95.90
61392;DHT22;47261;52.892;5.738;2022-10-31T09:56:42;15.90;95.90
61392;DHT22;47261;52.892;5.738;2022-10-31T09:59:25;16.00;95.90
61392;DHT22;47261;52.892;5.738;2022-10-31T10:01:59;16.20;95.80
61392;DHT22;47261;52.892;5.738;2022-10-31T10:04:39;16.30;95.70
61392;DHT22;47261;52.892;5.738;2022-10-31T10:09:56;16.50;95.30
61392;DHT22;47261;52.892;5.738;2022-10-31T10:15:28;16.40;94.90
61392;DHT22;47261;52.892;5.738;2022-10-31T10:21:09;16.20;94.70
61392;DHT22;47261;52.892;5.738;2022-10-31T10:23:54;16.20;94.70
61392;DHT22;47261;52.892;5.738;2022-10-31T10:26:29;16.10;94.80
61392;DHT22;47261;52.892;5.738;2022-10-31T10:29:00;16.20;95.00
61392;DHT22;47261;52.892;5.738;2022-10-31T10:31:32;16.20;95.00
61392;DHT22;47261;52.892;5.738;2022-10-31T10:37:11;16.20;94.70
61392;DHT22;47261;52.892;5.738;2022-10-31T10:39:45;16.20;94.60
61392;DHT22;47261;52.892;5.738;2022-10-31T10:42:14;16.10;94.60
61392;DHT22;47261;52.892;5.738;2022-10-31T10:45:00;16.10;94.60
61392;DHT22;47261;52.892;5.738;2022-10-31T10:47:55;16.10;94.60
61392;DHT22;47261;52.892;5.738;2022-10-31T10:50:27;16.00;94.60
61392;DHT22;47261;52.892;5.738;2022-10-31T10:58:25;15.80;94.60
61392;DHT22;47261;52.892;5.738;2022-10-31T11:00:53;15.70;94.50
61392;DHT22;47261;52.892;5.738;2022-10-31T11:03:19;15.70;94.60
61392;DHT22;47261;52.892;5.738;2022-10-31T11:05:51;15.60;94.60
61392;DHT22;47261;52.892;5.738;2022-10-31T11:08:29;15.60;94.70
61392;DHT22;47261;52.892;5.738;2022-10-31T11:13:26;15.60;94.90
61392;DHT22;47261;52.892;5.738;2022-10-31T11:16:00;15.60;94.90
61392;DHT22;47261;52.892;5.738;2022-10-31T11:18:32;15.60;94.90
61392;DHT22;47261;52.892;5.738;2022-10-31T11:21:01;15.60;95.00
61392;DHT22;47261;52.892;5.738;2022-10-31T11:23:29;15.70;95.10
61392;DHT22;47261;52.892;5.738;2022-10-31T11:26:02;15.70;95.20
61392;DHT22;47261;52.892;5.738;2022-10-31T11:28:30;15.80;95.20
61392;DHT22;47261;52.892;5.738;2022-10-31T11:30:59;15.90;95.30
61392;DHT22;47261;52.892;5.738;2022-10-31T11:33:36;16.10;95.30
61392;DHT22;47261;52.892;5.738;2022-10-31T11:36:13;16.20;95.30
61392;DHT22;47261;52.892;5.738;2022-10-31T11:38:42;16.30;95.40
61392;DHT22;47261;52.892;5.738;2022-10-31T11:41:15;16.40;95.30
61392;DHT22;47261;52.892;5.738;2022-10-31T11:43:48;16.50;95.00
61392;DHT22;47261;52.892;5.738;2022-10-31T11:46:22;16.60;94.90
61392;DHT22;47261;52.892;5.738;2022-10-31T11:48:51;16.70;94.70
61392;DHT22;47261;52.892;5.738;2022-10-31T11:51:26;16.80;94.60
61392;DHT22;47261;52.892;5.738;2022-10-31T11:53:57;16.80;94.20
61392;DHT22;47261;52.892;5.738;2022-10-31T11:56:23;16.80;94.00
61392;DHT22;47261;52.892;5.738;2022-10-31T11:59:22;16.70;93.70
61392;DHT22;47261;52.892;5.738;2022-10-31T12:01:50;16.70;93.50
61392;DHT22;47261;52.892;5.738;2022-10-31T12:04:16;16.70;93.60
61392;DHT22;47261;52.892;5.738;2022-10-31T12:06:46;16.70;93.60
61392;DHT22;47261;52.892;5.738;2022-10-31T12:09:45;16.60;93.60
61392;DHT22;47261;52.892;5.738;2022-10-31T12:17:31;16.60;93.70
61392;DHT22;47261;52.892;5.738;2022-10-31T12:31:43;16.60;94.10
61392;DHT22;47261;52.892;5.738;2022-10-31T12:37:37;16.70;94.10
61392;DHT22;47261;52.892;5.738;2022-10-31T12:48:46;16.50;93.80
61392;DHT22;47261;52.892;5.738;2022-10-31T12:56:45;16.70;94.20
61392;DHT22;47261;52.892;5.738;2022-10-31T12:59:48;16.80;94.20
61392;DHT22;47261;52.892;5.738;2022-10-31T13:02:35;17.00;94.20
61392;DHT22;47261;52.892;5.738;2022-10-31T13:05:29;17.20;94.00
61392;DHT22;47261;52.892;5.738;2022-10-31T13:13:27;17.30;93.60
61392;DHT22;47261;52.892;5.738;2022-10-31T13:16:10;17.20;93.50
61392;DHT22;47261;52.892;5.738;2022-10-31T13:18:56;17.10;93.50
61392;DHT22;47261;52.892;5.738;2022-10-31T13:21:26;17.10;93.60
61392;DHT22;47261;52.892;5.738;2022-10-31T13:23:52;17.10;93.60
61392;DHT22;47261;52.892;5.738;2022-10-31T13:26:40;17.20;93.60
61392;DHT22;47261;52.892;5.738;2022-10-31T13:29:26;17.20;93.60
61392;DHT22;47261;52.892;5.738;2022-10-31T13:31:52;17.20;93.50
61392;DHT22;47261;52.892;5.738;2022-10-31T13:34:33;17.20;93.50
61392;DHT22;47261;52.892;5.738;2022-10-31T13:37:40;17.20;93.30
61392;DHT22;47261;52.892;5.738;2022-10-31T13:45:22;17.00;93.10
61392;DHT22;47261;52.892;5.738;2022-10-31T13:50:39;16.90;93.10
61392;DHT22;47261;52.892;5.738;2022-10-31T13:53:20;16.80;93.20
61392;DHT22;47261;52.892;5.738;2022-10-31T13:55:48;16.80;93.50
61392;DHT22;47261;52.892;5.738;2022-10-31T13:58:24;16.70;93.30
61392;DHT22;47261;52.892;5.738;2022-10-31T14:01:16;16.70;93.30
61392;DHT22;47261;52.892;5.738;2022-10-31T14:03:46;16.70;93.30
61392;DHT22;47261;52.892;5.738;2022-10-31T14:06:13;16.70;93.30
61392;DHT22;47261;52.892;5.738;2022-10-31T14:08:49;16.70;93.30
61392;DHT22;47261;52.892;5.738;2022-10-31T14:11:24;16.80;93.30
61392;DHT22;47261;52.892;5.738;2022-10-31T14:13:50;16.80;93.30
61392;DHT22;47261;52.892;5.738;2022-10-31T14:16:30;16.80;93.30
61392;DHT22;47261;52.892;5.738;2022-10-31T14:19:03;16.80;93.30
61392;DHT22;47261;52.892;5.738;2022-10-31T14:21:36;16.80;93.20
61392;DHT22;47261;52.892;5.738;2022-10-31T14:24:14;16.80;93.20
61392;DHT22;47261;52.892;5.738;2022-10-31T14:26:55;16.80;93.20
61392;DHT22;47261;52.892;5.738;2022-10-31T14:29:23;16.70;93.10
61392;DHT22;47261;52.892;5.738;2022-10-31T14:31:55;16.70;93.10
61392;DHT22;47261;52.892;5.738;2022-10-31T14:34:36;16.80;93.10
61392;DHT22;47261;52.892;5.738;2022-10-31T14:47:45;16.70;93.00
61392;DHT22;47261;52.892;5.738;2022-10-31T14:53:16;16.60;93.00
61392;DHT22;47261;52.892;5.738;2022-10-31T14:55:47;16.60;93.10
61392;DHT22;47261;52.892;5.738;2022-10-31T14:58:18;16.50;93.20
61392;DHT22;47261;52.892;5.738;2022-10-31T15:00:44;16.50;93.20
61392;DHT22;47261;52.892;5.738;2022-10-31T15:05:54;16.40;93.30
61392;DHT22;47261;52.892;5.738;2022-10-31T15:10:52;16.40;93.40
61392;DHT22;47261;52.892;5.738;2022-10-31T15:13:20;16.30;93.50
61392;DHT22;47261;52.892;5.738;2022-10-31T15:15:48;16.30;93.50
61392;DHT22;47261;52.892;5.738;2022-10-31T15:18:18;16.30;93.60
61392;DHT22;47261;52.892;5.738;2022-10-31T15:20:46;16.20;93.90
61392;DHT22;47261;52.892;5.738;2022-10-31T15:23:24;16.20;93.70
61392;DHT22;47261;52.892;5.738;2022-10-31T15:25:50;16.10;93.70
61392;DHT22;47261;52.892;5.738;2022-10-31T15:28:24;16.10;93.80
61392;DHT22;47261;52.892;5.738;2022-10-31T15:30:55;16.10;93.80
61392;DHT22;47261;52.892;5.738;2022-10-31T15:33:39;16.00;93.80
61392;DHT22;47261;52.892;5.738;2022-10-31T15:36:05;16.00;93.90
61392;DHT22;47261;52.892;5.738;2022-10-31T15:38:31;16.00;93.90
61392;DHT22;47261;52.892;5.738;2022-10-31T15:41:04;15.90;94.00
61392;DHT22;47261;52.892;5.738;2022-10-31T15:43:35;15.90;94.00
61392;DHT22;47261;52.892;5.738;2022-10-31T15:46:02;15.90;94.00
61392;DHT22;47261;52.892;5.738;2022-10-31T15:48:29;15.90;94.00
61392;DHT22;47261;52.892;5.738;2022-10-31T15:50:58;15.80;94.10
61392;DHT22;47261;52.892;5.738;2022-10-31T15:53:43;15.80;94.10
61392;DHT22;47261;52.892;5.738;2022-10-31T15:56:13;15.70;94.20
61392;DHT22;47261;52.892;5.738;2022-10-31T15:58:46;15.70;94.20
61392;DHT22;47261;52.892;5.738;2022-10-31T16:01:24;15.70;94.20
61392;DHT22;47261;52.892;5.738;2022-10-31T16:04:22;15.60;94.20
61392;DHT22;47261;52.892;5.738;2022-10-31T16:07:10;15.60;94.30
61392;DHT22;47261;52.892;5.738;2022-10-31T16:09:37;15.60;94.30
61392;DHT22;47261;52.892;5.738;2022-10-31T16:12:14;15.60;94.30
61392;DHT22;47261;52.892;5.738;2022-10-31T16:14:41;15.60;94.40
61392;DHT22;47261;52.892;5.738;2022-10-31T16:17:12;15.60;94.40
61392;DHT22;47261;52.892;5.738;2022-10-31T16:22:23;15.50;94.40
61392;DHT22;47261;52.892;5.738;2022-10-31T16:24:57;15.50;94.40
61392;DHT22;47261;52.892;5.738;2022-10-31T16:27:27;15.50;94.50
61392;DHT22;47261;52.892;5.738;2022-10-31T16:29:58;15.50;94.50
61392;DHT22;47261;52.892;5.738;2022-10-31T16:32:55;15.50;94.50
61392;DHT22;47261;52.892;5.738;2022-10-31T16:35:38;15.50;94.60
61392;DHT22;47261;52.892;5.738;2022-10-31T16:38:04;15.50;94.50
61392;DHT22;47261;52.892;5.738;2022-10-31T16:40:31;15.50;94.50
61392;DHT22;47261;52.892;5.738;2022-10-31T16:42:58;15.50;94.50
61392;DHT22;47261;52.892;5.738;2022-10-31T16:45:27;15.50;94.50
61392;DHT22;47261;52.892;5.738;2022-10-31T16:47:53;15.50;94.50
61392;DHT22;47261;52.892;5.738;2022-10-31T16:50:24;15.40;94.50
61392;DHT22;47261;52.892;5.738;2022-10-31T16:52:50;15.40;94.50
61392;DHT22;47261;52.892;5.738;2022-10-31T16:55:17;15.40;94.50
61392;DHT22;47261;52.892;5.738;2022-10-31T16:57:52;15.40;94.60
61392;DHT22;47261;52.892;5.738;2022-10-31T17:00:21;15.40;94.60
61392;DHT22;47261;52.892;5.738;2022-10-31T17:02:50;15.40;94.60
61392;DHT22;47261;52.892;5.738;2022-10-31T17:05:18;15.40;94.60
61392;DHT22;47261;52.892;5.738;2022-10-31T17:07:44;15.40;94.60
61392;DHT22;47261;52.892;5.738;2022-10-31T17:10:11;15.40;94.60
61392;DHT22;47261;52.892;5.738;2022-10-31T17:12:40;15.30;94.60
61392;DHT22;47261;52.892;5.738;2022-10-31T17:15:15;15.30;94.60
61392;DHT22;47261;52.892;5.738;2022-10-31T17:17:42;15.30;94.70
61392;DHT22;47261;52.892;5.738;2022-10-31T17:22:48;15.30;94.70
61392;DHT22;47261;52.892;5.738;2022-10-31T17:25:16;15.30;94.70
61392;DHT22;47261;52.892;5.738;2022-10-31T17:27:42;15.30;94.80
61392;DHT22;47261;52.892;5.738;2022-10-31T17:30:10;15.30;94.80
61392;DHT22;47261;52.892;5.738;2022-10-31T17:32:35;15.30;94.80
61392;DHT22;47261;52.892;5.738;2022-10-31T17:35:01;15.20;94.80
61392;DHT22;47261;52.892;5.738;2022-10-31T17:37:27;15.30;94.80
61392;DHT22;47261;52.892;5.738;2022-10-31T17:39:52;15.30;94.80
61392;DHT22;47261;52.892;5.738;2022-10-31T17:42:18;15.20;94.80
61392;DHT22;47261;52.892;5.738;2022-10-31T17:44:43;15.20;94.80
61392;DHT22;47261;52.892;5.738;2022-10-31T17:47:09;15.20;94.90
61392;DHT22;47261;52.892;5.738;2022-10-31T17:49:34;15.30;94.90
61392;DHT22;47261;52.892;5.738;2022-10-31T17:52:00;15.20;94.90
61392;DHT22;47261;52.892;5.738;2022-10-31T17:54:25;15.20;94.90
61392;DHT22;47261;52.892;5.738;2022-10-31T17:56:52;15.20;94.90